PWSweather.com
Personal Weather Stations
Station Observations
ERMELO
Centre, ErmeloNL

CentreErmeloNL

Lat: 52.2986655, Lon: 5.6296194

Elevation: 41

Station Type: Oregon WMR200

www.meteoermelo.nl

High Low Average
Temperature 45.5°F7.5°C 39.9°F4.4°C 42.7°F5.9°C
Dew Point 39.3°F4.1°C 32.0°F0.0°C 36.1°F2.3°C
Winds 11.8 mph 19.0 kmh 5.5 mph 8.9 kmh 8.0 mph SW12.9 kmh SW
Wind Gusts 25.3 mph40.7 kmh 8.9 mph14.3 kmh 14.0 mph22.5 kmh
Humidity 95% 66% 78%
Pressure 29.92 in1013.2 mb 29.53 in1000.0 mb -
Precipitation 0.00 in0.0 mm - -
Hour Temp Dew Point Humidity Winds Wind Gusts Pressure Precip Precip Rate Daily Precip Total
12:00 AM 45.0°F7.2°C 37.5°F3.1°C 75% 6.9 mph SW11.1 kmh SW 10.7 mph17.2 kmh 29.92 in1013.2 mb 0.00 in0.0 mm 0.00 in0.0 mm 0.00 in0.0 mm
12:15 AM 45.0°F7.2°C 37.5°F3.1°C 75% 7.6 mph SW12.2 kmh SW 13.2 mph21.2 kmh 29.92 in1013.2 mb 0.00 in0.0 mm 0.00 in0.0 mm 0.00 in0.0 mm
12:30 AM 44.8°F7.1°C 37.0°F2.8°C 74% 6.1 mph SW9.8 kmh SW 11.0 mph17.7 kmh 29.92 in1013.2 mb 0.00 in0.0 mm 0.00 in0.0 mm 0.00 in0.0 mm
12:45 AM 44.8°F7.1°C 37.0°F2.8°C 74% 5.5 mph SW8.9 kmh SW 8.9 mph14.3 kmh 29.92 in1013.2 mb 0.00 in0.0 mm 0.00 in0.0 mm 0.00 in0.0 mm
01:00 AM 44.8°F7.1°C 37.0°F2.8°C 74% 6.4 mph SW10.3 kmh SW 12.1 mph19.5 kmh 29.89 in1012.2 mb 0.00 in0.0 mm 0.00 in0.0 mm 0.00 in0.0 mm
01:15 AM 44.8°F7.1°C 36.7°F2.6°C 73% 7.2 mph SW11.6 kmh SW 13.0 mph20.9 kmh 29.89 in1012.2 mb 0.00 in0.0 mm 0.00 in0.0 mm 0.00 in0.0 mm
01:30 AM 44.8°F7.1°C 36.7°F2.6°C 73% 6.7 mph SW10.8 kmh SW 11.0 mph17.7 kmh 29.89 in1012.2 mb 0.00 in0.0 mm 0.00 in0.0 mm 0.00 in0.0 mm
01:45 AM 44.8°F7.1°C 36.3°F2.4°C 72% 6.6 mph SW10.6 kmh SW 11.9 mph19.2 kmh 29.89 in1012.2 mb 0.00 in0.0 mm 0.00 in0.0 mm 0.00 in0.0 mm
02:00 AM 44.8°F7.1°C 36.3°F2.4°C 72% 5.9 mph SW9.5 kmh SW 11.0 mph17.7 kmh 29.89 in1012.2 mb 0.00 in0.0 mm 0.00 in0.0 mm 0.00 in0.0 mm
02:15 AM 44.8°F7.1°C 36.3°F2.4°C 72% 6.7 mph SW10.8 kmh SW 12.1 mph19.5 kmh 29.89 in1012.2 mb 0.00 in0.0 mm 0.00 in0.0 mm 0.00 in0.0 mm
02:30 AM 45.0°F7.2°C 36.5°F2.5°C 72% 8.5 mph SW13.7 kmh SW 15.2 mph24.5 kmh 29.86 in1011.2 mb 0.00 in0.0 mm 0.00 in0.0 mm 0.00 in0.0 mm
02:45 AM 45.1°F7.3°C 36.3°F2.4°C 71% 9.1 mph SW14.6 kmh SW 14.5 mph23.3 kmh 29.92 in1013.2 mb 0.00 in0.0 mm 0.00 in0.0 mm 0.00 in0.0 mm
03:00 AM 45.1°F7.3°C 35.9°F2.2°C 70% 7.7 mph SW12.4 kmh SW 12.3 mph19.8 kmh 29.89 in1012.2 mb 0.00 in0.0 mm 0.00 in0.0 mm 0.00 in0.0 mm
03:15 AM 45.3°F7.4°C 35.7°F2.1°C 69% 8.7 mph SW14.0 kmh SW 14.8 mph23.8 kmh 29.89 in1012.2 mb 0.00 in0.0 mm 0.00 in0.0 mm 0.00 in0.0 mm
03:30 AM 45.1°F7.3°C 35.6°F2.0°C 69% 5.9 mph SW9.5 kmh SW 10.7 mph17.2 kmh 29.89 in1012.2 mb 0.00 in0.0 mm 0.00 in0.0 mm 0.00 in0.0 mm
03:45 AM 45.1°F7.3°C 35.6°F2.0°C 69% 7.4 mph SW11.9 kmh SW 14.5 mph23.3 kmh 29.89 in1012.2 mb 0.00 in0.0 mm 0.00 in0.0 mm 0.00 in0.0 mm
04:00 AM 45.1°F7.3°C 35.9°F2.2°C 70% 7.3 mph SW11.7 kmh SW 12.1 mph19.5 kmh 29.86 in1011.2 mb 0.00 in0.0 mm 0.00 in0.0 mm 0.00 in0.0 mm
04:15 AM 45.1°F7.3°C 36.3°F2.4°C 71% 7.9 mph SW12.7 kmh SW 15.2 mph24.5 kmh 29.86 in1011.2 mb 0.00 in0.0 mm 0.00 in0.0 mm 0.00 in0.0 mm
04:30 AM 45.1°F7.3°C 36.3°F2.4°C 71% 8.7 mph SW14.0 kmh SW 13.9 mph22.4 kmh 29.86 in1011.2 mb 0.00 in0.0 mm 0.00 in0.0 mm 0.00 in0.0 mm
04:45 AM 45.5°F7.5°C 36.3°F2.4°C 70% 8.9 mph SW14.3 kmh SW 15.4 mph24.8 kmh 29.86 in1011.2 mb 0.00 in0.0 mm 0.00 in0.0 mm 0.00 in0.0 mm
05:00 AM 45.5°F7.5°C 35.9°F2.2°C 69% 8.3 mph SW13.4 kmh SW 12.8 mph20.6 kmh 29.86 in1011.2 mb 0.00 in0.0 mm 0.00 in0.0 mm 0.00 in0.0 mm
05:15 AM 45.3°F7.4°C 36.1°F2.3°C 70% 8.1 mph SW13.0 kmh SW 13.0 mph20.9 kmh 29.83 in1010.2 mb 0.00 in0.0 mm 0.00 in0.0 mm 0.00 in0.0 mm
05:30 AM 45.3°F7.4°C 36.8°F2.7°C 72% 7.5 mph SW12.1 kmh SW 15.2 mph24.5 kmh 29.83 in1010.2 mb 0.00 in0.0 mm 0.00 in0.0 mm 0.00 in0.0 mm
05:45 AM 45.1°F7.3°C 37.7°F3.2°C 75% 7.4 mph SW11.9 kmh SW 12.8 mph20.6 kmh 29.83 in1010.2 mb 0.00 in0.0 mm 0.00 in0.0 mm 0.00 in0.0 mm
06:00 AM 44.8°F7.1°C 37.7°F3.2°C 76% 8.0 mph SW12.9 kmh SW 13.0 mph20.9 kmh 29.83 in1010.2 mb 0.00 in0.0 mm 0.00 in0.0 mm 0.00 in0.0 mm
06:15 AM 44.8°F7.1°C 38.0°F3.3°C 77% 7.8 mph SW12.6 kmh SW 14.3 mph23.0 kmh 29.83 in1010.2 mb 0.00 in0.0 mm 0.00 in0.0 mm 0.00 in0.0 mm
06:30 AM 44.8°F7.1°C 38.3°F3.5°C 78% 8.3 mph SW13.4 kmh SW 13.0 mph20.9 kmh 29.83 in1010.2 mb 0.00 in0.0 mm 0.00 in0.0 mm 0.00 in0.0 mm
06:45 AM 44.8°F7.1°C 38.0°F3.3°C 77% 6.7 mph SW10.8 kmh SW 12.3 mph19.8 kmh 29.83 in1010.2 mb 0.00 in0.0 mm 0.00 in0.0 mm 0.00 in0.0 mm
07:00 AM 44.6°F7.0°C 38.2°F3.4°C 78% 8.3 mph SW13.4 kmh SW 13.2 mph21.2 kmh 29.86 in1011.2 mb 0.00 in0.0 mm 0.00 in0.0 mm 0.00 in0.0 mm
07:15 AM 44.4°F6.9°C 38.3°F3.5°C 79% 9.0 mph SW14.5 kmh SW 17.2 mph27.7 kmh 29.83 in1010.2 mb 0.00 in0.0 mm 0.00 in0.0 mm 0.00 in0.0 mm
07:30 AM 44.1°F6.7°C 38.3°F3.5°C 80% 7.0 mph SW11.3 kmh SW 14.3 mph23.0 kmh 29.83 in1010.2 mb 0.00 in0.0 mm 0.00 in0.0 mm 0.00 in0.0 mm
07:45 AM 43.9°F6.6°C 39.1°F3.9°C 83% 7.6 mph SW12.2 kmh SW 14.1 mph22.7 kmh 29.83 in1010.2 mb 0.00 in0.0 mm 0.00 in0.0 mm 0.00 in0.0 mm
08:00 AM 43.7°F6.5°C 39.2°F4.0°C 84% 8.3 mph SW13.4 kmh SW 14.5 mph23.3 kmh 29.83 in1010.2 mb 0.00 in0.0 mm 0.00 in0.0 mm 0.00 in0.0 mm
08:15 AM 43.5°F6.4°C 39.3°F4.1°C 85% 8.4 mph SW13.5 kmh SW 13.4 mph21.6 kmh 29.80 in1009.1 mb 0.00 in0.0 mm 0.00 in0.0 mm 0.00 in0.0 mm
08:30 AM 43.5°F6.4°C 39.3°F4.1°C 85% 7.5 mph SW12.1 kmh SW 13.0 mph20.9 kmh 29.80 in1009.1 mb 0.00 in0.0 mm 0.00 in0.0 mm 0.00 in0.0 mm
08:45 AM 43.3°F6.3°C 39.1°F3.9°C 85% 7.4 mph SW11.9 kmh SW 13.2 mph21.2 kmh 29.80 in1009.1 mb 0.00 in0.0 mm 0.00 in0.0 mm 0.00 in0.0 mm
09:00 AM 43.2°F6.2°C 38.7°F3.7°C 84% 7.6 mph SW12.2 kmh SW 15.4 mph24.8 kmh 29.80 in1009.1 mb 0.00 in0.0 mm 0.00 in0.0 mm 0.00 in0.0 mm
09:15 AM 43.0°F6.1°C 38.8°F3.8°C 85% 8.3 mph SW13.4 kmh SW 14.3 mph23.0 kmh 29.83 in1010.2 mb 0.00 in0.0 mm 0.00 in0.0 mm 0.00 in0.0 mm
09:30 AM 43.0°F6.1°C 38.8°F3.8°C 85% 8.5 mph SW13.7 kmh SW 15.2 mph24.5 kmh 29.80 in1009.1 mb 0.00 in0.0 mm 0.00 in0.0 mm 0.00 in0.0 mm
09:45 AM 43.0°F6.1°C 38.8°F3.8°C 85% 6.8 mph SW10.9 kmh SW 12.8 mph20.6 kmh 29.83 in1010.2 mb 0.00 in0.0 mm 0.00 in0.0 mm 0.00 in0.0 mm
10:00 AM 42.8°F6.0°C 38.3°F3.5°C 84% 8.6 mph SW13.8 kmh SW 15.2 mph24.5 kmh 29.80 in1009.1 mb 0.00 in0.0 mm 0.00 in0.0 mm 0.00 in0.0 mm
10:15 AM 42.8°F6.0°C 38.3°F3.5°C 84% 8.5 mph SW13.7 kmh SW 14.5 mph23.3 kmh 29.80 in1009.1 mb 0.00 in0.0 mm 0.00 in0.0 mm 0.00 in0.0 mm
10:30 AM 42.6°F5.9°C 38.1°F3.4°C 84% 9.2 mph SW14.8 kmh SW 17.4 mph28.0 kmh 29.80 in1009.1 mb 0.00 in0.0 mm 0.00 in0.0 mm 0.00 in0.0 mm
10:45 AM 42.4°F5.8°C 37.9°F3.3°C 84% 8.1 mph SW13.0 kmh SW 15.7 mph25.3 kmh 29.80 in1009.1 mb 0.00 in0.0 mm 0.00 in0.0 mm 0.00 in0.0 mm
11:00 AM 42.3°F5.7°C 37.5°F3.1°C 83% 9.0 mph SW14.5 kmh SW 17.7 mph28.5 kmh 29.80 in1009.1 mb 0.00 in0.0 mm 0.00 in0.0 mm 0.00 in0.0 mm
11:15 AM 42.3°F5.7°C 37.2°F2.9°C 82% 9.7 mph SW15.6 kmh SW 15.2 mph24.5 kmh 29.77 in1008.1 mb 0.00 in0.0 mm 0.00 in0.0 mm 0.00 in0.0 mm
11:30 AM 42.3°F5.7°C 37.2°F2.9°C 82% 6.7 mph SW10.8 kmh SW 13.2 mph21.2 kmh 29.77 in1008.1 mb 0.00 in0.0 mm 0.00 in0.0 mm 0.00 in0.0 mm
11:45 AM 42.1°F5.6°C 37.3°F2.9°C 83% 7.3 mph SW11.7 kmh SW 14.8 mph23.8 kmh 29.77 in1008.1 mb 0.00 in0.0 mm 0.00 in0.0 mm 0.00 in0.0 mm
12:00 PM 42.3°F5.7°C 37.5°F3.1°C 83% 7.3 mph SW11.7 kmh SW 17.4 mph28.0 kmh 29.77 in1008.1 mb 0.00 in0.0 mm 0.00 in0.0 mm 0.00 in0.0 mm
12:15 PM 42.4°F5.8°C 37.0°F2.8°C 81% 7.8 mph SW12.6 kmh SW 15.2 mph24.5 kmh 29.77 in1008.1 mb 0.00 in0.0 mm 0.00 in0.0 mm 0.00 in0.0 mm
12:30 PM 42.3°F5.7°C 36.2°F2.3°C 79% 6.9 mph SW11.1 kmh SW 15.2 mph24.5 kmh 29.74 in1007.1 mb 0.00 in0.0 mm 0.00 in0.0 mm 0.00 in0.0 mm
12:45 PM 42.6°F5.9°C 35.6°F2.0°C 76% 7.4 mph SW11.9 kmh SW 16.8 mph27.0 kmh 29.74 in1007.1 mb 0.00 in0.0 mm 0.00 in0.0 mm 0.00 in0.0 mm
01:00 PM 42.6°F5.9°C 34.9°F1.6°C 74% 8.7 mph SW14.0 kmh SW 13.2 mph21.2 kmh 29.74 in1007.1 mb 0.00 in0.0 mm 0.00 in0.0 mm 0.00 in0.0 mm
01:15 PM 42.8°F6.0°C 35.1°F1.7°C 74% 7.3 mph SSW11.7 kmh SSW 12.1 mph19.5 kmh 29.68 in1005.1 mb 0.00 in0.0 mm 0.00 in0.0 mm 0.00 in0.0 mm
01:30 PM 42.8°F6.0°C 34.7°F1.5°C 73% 8.0 mph SSW12.9 kmh SSW 15.2 mph24.5 kmh 29.71 in1006.1 mb 0.00 in0.0 mm 0.00 in0.0 mm 0.00 in0.0 mm
01:45 PM 42.8°F6.0°C 34.4°F1.3°C 72% 7.4 mph SW11.9 kmh SW 14.1 mph22.7 kmh 29.71 in1006.1 mb 0.00 in0.0 mm 0.00 in0.0 mm 0.00 in0.0 mm
02:00 PM 42.8°F6.0°C 33.7°F0.9°C 70% 8.4 mph SSW13.5 kmh SSW 14.8 mph23.8 kmh 29.71 in1006.1 mb 0.00 in0.0 mm 0.00 in0.0 mm 0.00 in0.0 mm
02:15 PM 42.8°F6.0°C 33.7°F0.9°C 70% 8.4 mph SW13.5 kmh SW 14.8 mph23.8 kmh 29.71 in1006.1 mb 0.00 in0.0 mm 0.00 in0.0 mm 0.00 in0.0 mm
02:30 PM 43.0°F6.1°C 33.5°F0.8°C 69% 8.7 mph SW14.0 kmh SW 25.3 mph40.7 kmh 29.71 in1006.1 mb 0.00 in0.0 mm 0.00 in0.0 mm 0.00 in0.0 mm
02:45 PM 43.0°F6.1°C 33.1°F0.6°C 68% 7.3 mph SW11.7 kmh SW 13.2 mph21.2 kmh 29.68 in1005.1 mb 0.00 in0.0 mm 0.00 in0.0 mm 0.00 in0.0 mm
03:00 PM 42.6°F5.9°C 32.0°F0.0°C 66% 7.5 mph SSW12.1 kmh SSW 13.6 mph21.9 kmh 29.68 in1005.1 mb 0.00 in0.0 mm 0.00 in0.0 mm 0.00 in0.0 mm
03:15 PM 42.6°F5.9°C 32.4°F0.2°C 67% 9.1 mph SSW14.6 kmh SSW 17.4 mph28.0 kmh 29.65 in1004.1 mb 0.00 in0.0 mm 0.00 in0.0 mm 0.00 in0.0 mm
03:30 PM 42.4°F5.8°C 32.3°F0.2°C 67% 7.6 mph SSW12.2 kmh SSW 13.0 mph20.9 kmh 29.65 in1004.1 mb 0.00 in0.0 mm 0.00 in0.0 mm 0.00 in0.0 mm
03:45 PM 42.3°F5.7°C 32.1°F0.1°C 67% 6.8 mph SSW10.9 kmh SSW 15.2 mph24.5 kmh 29.65 in1004.1 mb 0.00 in0.0 mm 0.00 in0.0 mm 0.00 in0.0 mm
04:00 PM 42.1°F5.6°C 32.6°F0.3°C 69% 7.2 mph SSW11.6 kmh SSW 13.2 mph21.2 kmh 29.65 in1004.1 mb 0.00 in0.0 mm 0.00 in0.0 mm 0.00 in0.0 mm
04:15 PM 41.5°F5.3°C 32.8°F0.4°C 71% 8.9 mph S14.3 kmh S 15.4 mph24.8 kmh 29.65 in1004.1 mb 0.00 in0.0 mm 0.00 in0.0 mm 0.00 in0.0 mm
04:30 PM 41.5°F5.3°C 33.2°F0.7°C 72% 7.6 mph SW12.2 kmh SW 17.2 mph27.7 kmh 29.65 in1004.1 mb 0.00 in0.0 mm 0.00 in0.0 mm 0.00 in0.0 mm
04:45 PM 41.4°F5.2°C 33.0°F0.6°C 72% 7.2 mph SSW11.6 kmh SSW 12.5 mph20.1 kmh 29.62 in1003.0 mb 0.00 in0.0 mm 0.00 in0.0 mm 0.00 in0.0 mm
05:00 PM 41.0°F5.0°C 33.0°F0.6°C 73% 8.1 mph S13.0 kmh S 12.3 mph19.8 kmh 29.62 in1003.0 mb 0.00 in0.0 mm 0.00 in0.0 mm 0.00 in0.0 mm
05:15 PM 41.0°F5.0°C 33.0°F0.6°C 73% 7.8 mph SSW12.6 kmh SSW 13.4 mph21.6 kmh 29.62 in1003.0 mb 0.00 in0.0 mm 0.00 in0.0 mm 0.00 in0.0 mm
05:30 PM 41.0°F5.0°C 32.7°F0.4°C 72% 7.6 mph SSW12.2 kmh SSW 12.3 mph19.8 kmh 29.62 in1003.0 mb 0.00 in0.0 mm 0.00 in0.0 mm 0.00 in0.0 mm
05:45 PM 40.8°F4.9°C 32.5°F0.3°C 72% 7.7 mph S12.4 kmh S 15.4 mph24.8 kmh 29.59 in1002.0 mb 0.00 in0.0 mm 0.00 in0.0 mm 0.00 in0.0 mm
06:00 PM 40.8°F4.9°C 32.8°F0.4°C 73% 8.2 mph SSW13.2 kmh SSW 14.3 mph23.0 kmh 29.59 in1002.0 mb 0.00 in0.0 mm 0.00 in0.0 mm 0.00 in0.0 mm
06:15 PM 40.8°F4.9°C 32.8°F0.4°C 73% 8.0 mph SSW12.9 kmh SSW 16.6 mph26.7 kmh 29.59 in1002.0 mb 0.00 in0.0 mm 0.00 in0.0 mm 0.00 in0.0 mm
06:30 PM 40.6°F4.8°C 32.3°F0.2°C 72% 8.9 mph SSW14.3 kmh SSW 20.6 mph33.2 kmh 29.59 in1002.0 mb 0.00 in0.0 mm 0.00 in0.0 mm 0.00 in0.0 mm
06:45 PM 40.5°F4.7°C 32.1°F0.1°C 72% 8.0 mph SSW12.9 kmh SSW 14.8 mph23.8 kmh 29.59 in1002.0 mb 0.00 in0.0 mm 0.00 in0.0 mm 0.00 in0.0 mm
07:00 PM 40.5°F4.7°C 32.5°F0.3°C 73% 7.6 mph SW12.2 kmh SW 17.7 mph28.5 kmh 29.59 in1002.0 mb 0.00 in0.0 mm 0.00 in0.0 mm 0.00 in0.0 mm
07:15 PM 40.3°F4.6°C 32.6°F0.3°C 74% 7.8 mph SSW12.6 kmh SSW 16.6 mph26.7 kmh 29.59 in1002.0 mb 0.00 in0.0 mm 0.00 in0.0 mm 0.00 in0.0 mm
07:30 PM 40.1°F4.5°C 33.5°F0.8°C 77% 9.2 mph SSW14.8 kmh SSW 15.4 mph24.8 kmh 29.59 in1002.0 mb 0.00 in0.0 mm 0.00 in0.0 mm 0.00 in0.0 mm
07:45 PM 39.9°F4.4°C 33.9°F1.1°C 79% 6.8 mph SSW10.9 kmh SSW 12.5 mph20.1 kmh 29.56 in1001.0 mb 0.00 in0.0 mm 0.00 in0.0 mm 0.00 in0.0 mm
08:00 PM 39.9°F4.4°C 34.9°F1.6°C 82% 7.5 mph S12.1 kmh S 15.2 mph24.5 kmh 29.53 in1000.0 mb 0.00 in0.0 mm 0.00 in0.0 mm 0.00 in0.0 mm
08:15 PM 39.9°F4.4°C 35.5°F1.9°C 84% 6.8 mph SSW10.9 kmh SSW 13.4 mph21.6 kmh 29.53 in1000.0 mb 0.00 in0.0 mm 0.00 in0.0 mm 0.00 in0.0 mm
08:30 PM 39.9°F4.4°C 35.8°F2.1°C 85% 7.5 mph SSW12.1 kmh SSW 13.0 mph20.9 kmh 29.53 in1000.0 mb 0.00 in0.0 mm 0.00 in0.0 mm 0.00 in0.0 mm
08:45 PM 39.9°F4.4°C 36.4°F2.4°C 87% 7.8 mph SSW12.6 kmh SSW 14.1 mph22.7 kmh 29.53 in1000.0 mb 0.00 in0.0 mm 0.00 in0.0 mm 0.00 in0.0 mm
09:00 PM 39.9°F4.4°C 36.7°F2.6°C 88% 7.6 mph SW12.2 kmh SW 16.1 mph25.9 kmh 29.53 in1000.0 mb 0.00 in0.0 mm 0.00 in0.0 mm 0.00 in0.0 mm
09:15 PM 39.9°F4.4°C 36.9°F2.7°C 89% 7.5 mph SSW12.1 kmh SSW 12.8 mph20.6 kmh 29.53 in1000.0 mb 0.00 in0.0 mm 0.00 in0.0 mm 0.00 in0.0 mm
09:30 PM 40.1°F4.5°C 37.7°F3.2°C 91% 7.7 mph SSW12.4 kmh SSW 14.8 mph23.8 kmh 29.53 in1000.0 mb 0.00 in0.0 mm 0.00 in0.0 mm 0.00 in0.0 mm
09:45 PM 39.9°F4.4°C 38.1°F3.4°C 93% 8.1 mph SSW13.0 kmh SSW 13.2 mph21.2 kmh 29.53 in1000.0 mb 0.00 in0.0 mm 0.00 in0.0 mm 0.00 in0.0 mm
10:00 PM 40.1°F4.5°C 38.2°F3.4°C 93% 6.8 mph SW10.9 kmh SW 15.9 mph25.6 kmh 29.53 in1000.0 mb 0.00 in0.0 mm 0.00 in0.0 mm 0.00 in0.0 mm
10:15 PM 40.3°F4.6°C 38.7°F3.7°C 94% 7.8 mph SW12.6 kmh SW 12.1 mph19.5 kmh 29.53 in1000.0 mb 0.00 in0.0 mm 0.00 in0.0 mm 0.00 in0.0 mm
10:30 PM 40.3°F4.6°C 39.0°F3.9°C 95% 6.2 mph SW10.0 kmh SW 10.5 mph16.9 kmh 29.53 in1000.0 mb 0.00 in0.0 mm 0.00 in0.0 mm 0.00 in0.0 mm
10:45 PM 40.5°F4.7°C 38.9°F3.8°C 94% 7.2 mph SW11.6 kmh SW 12.8 mph20.6 kmh 29.53 in1000.0 mb 0.00 in0.0 mm 0.00 in0.0 mm 0.00 in0.0 mm
11:00 PM 40.5°F4.7°C 38.9°F3.8°C 94% 6.6 mph SW10.6 kmh SW 11.0 mph17.7 kmh 29.53 in1000.0 mb 0.00 in0.0 mm 0.00 in0.0 mm 0.00 in0.0 mm
11:15 PM 40.6°F4.8°C 39.0°F3.9°C 94% 8.3 mph SW13.4 kmh SW 13.0 mph20.9 kmh 29.53 in1000.0 mb 0.00 in0.0 mm 0.00 in0.0 mm 0.00 in0.0 mm
11:30 PM 40.5°F4.7°C 38.3°F3.5°C 92% 11.8 mph W19.0 kmh W 23.0 mph37.0 kmh 29.53 in1000.0 mb 0.00 in0.0 mm 0.00 in0.0 mm 0.00 in0.0 mm
11:45 PM 39.9°F4.4°C 37.5°F3.1°C 91% 6.4 mph WNW10.3 kmh WNW 9.6 mph15.4 kmh 29.53 in1000.0 mb 0.00 in0.0 mm 0.00 in0.0 mm 0.00 in0.0 mm